createdAt,value
2019-01-23T00:02:12.429Z,74.83
2019-01-23T00:04:39.568Z,80.37
2019-01-23T00:07:07.823Z,73.93
2019-01-23T00:09:34.885Z,78.97
2019-01-23T00:12:01.946Z,78.83
2019-01-23T00:14:29.097Z,84.67
2019-01-23T00:16:56.253Z,73.30
2019-01-23T00:19:23.325Z,79.00
2019-01-23T00:21:50.419Z,77.17
2019-01-23T00:24:17.522Z,83.47
2019-01-23T00:26:44.648Z,81.73
2019-01-23T00:29:11.802Z,85.53
2019-01-23T00:31:38.971Z,83.93
2019-01-23T00:34:06.045Z,89.60
2019-01-23T00:36:33.124Z,87.93
2019-01-23T00:39:00.184Z,89.13
2019-01-23T00:41:27.274Z,91.87
2019-01-23T00:43:54.553Z,86.37
2019-01-23T00:46:21.625Z,80.40
2019-01-23T00:48:48.802Z,86.47
2019-01-23T00:51:15.881Z,91.20
2019-01-23T00:53:42.948Z,93.07
2019-01-23T00:56:10.039Z,94.87
2019-01-23T00:58:37.156Z,94.50
2019-01-23T01:01:04.723Z,91.93
2019-01-23T01:03:31.842Z,92.37
2019-01-23T01:05:58.931Z,92.43
2019-01-23T01:08:26.121Z,88.20
2019-01-23T01:10:53.241Z,87.03
2019-01-23T01:13:20.315Z,85.30
2019-01-23T01:15:47.584Z,89.40
2019-01-23T01:18:14.688Z,90.37
2019-01-23T01:20:41.908Z,84.67
2019-01-23T01:23:28.372Z,86.57
2019-01-23T01:25:57.436Z,88.33
2019-01-23T01:28:24.501Z,85.70
2019-01-23T01:30:51.615Z,81.40
2019-01-23T01:33:18.685Z,90.63
2019-01-23T01:35:45.743Z,94.17
2019-01-23T01:38:32.507Z,86.77
2019-01-23T01:40:59.566Z,90.20
2019-01-23T01:43:27.598Z,90.43
2019-01-23T01:45:54.782Z,98.03
2019-01-23T01:48:21.885Z,89.83
2019-01-23T01:50:48.959Z,84.80
2019-01-23T01:53:16.080Z,85.93
2019-01-23T01:55:43.145Z,81.67
2019-01-23T01:58:10.413Z,82.43
2019-01-23T02:00:37.532Z,89.67
2019-01-23T02:03:05.020Z,90.80
2019-01-23T02:05:32.080Z,91.60
2019-01-23T02:07:59.285Z,84.50
2019-01-23T02:10:26.395Z,90.53
2019-01-23T02:12:53.455Z,79.20
2019-01-23T02:15:20.584Z,90.60
2019-01-23T02:17:48.124Z,83.23
2019-01-23T02:20:23.663Z,88.27
2019-01-23T02:22:51.136Z,89.87
2019-01-23T02:25:18.587Z,92.17
2019-01-23T02:27:46.685Z,89.83
2019-01-23T02:30:16.879Z,83.30
2019-01-23T02:32:44.041Z,85.87
2019-01-23T02:35:11.553Z,87.50
2019-01-23T02:37:38.634Z,83.67
2019-01-23T02:40:09.479Z,82.73
2019-01-23T02:42:36.582Z,86.57
2019-01-23T02:45:22.577Z,85.07
2019-01-23T02:47:49.774Z,84.97
2019-01-23T02:50:17.127Z,86.43
2019-01-23T02:52:44.191Z,85.67
2019-01-23T02:55:11.698Z,88.40
2019-01-23T02:57:39.108Z,85.63
2019-01-23T03:00:09.015Z,77.57
2019-01-23T03:02:36.252Z,88.97
2019-01-23T03:05:04.799Z,93.53
2019-01-23T03:07:31.889Z,89.57
2019-01-23T03:09:58.973Z,94.67
2019-01-23T03:12:26.210Z,94.60
2019-01-23T03:14:53.312Z,96.90
2019-01-23T03:17:20.405Z,93.57
2019-01-23T03:19:47.718Z,88.10
2019-01-23T03:22:14.790Z,88.23
2019-01-23T03:24:41.966Z,84.47
2019-01-23T03:27:09.091Z,96.70
2019-01-23T03:29:36.168Z,91.40
2019-01-23T03:32:03.559Z,90.67
2019-01-23T03:34:30.664Z,91.40
2019-01-23T03:36:57.813Z,99.47
2019-01-23T03:39:24.895Z,96.93
2019-01-23T03:41:52.013Z,95.30
2019-01-23T03:44:19.215Z,91.93
2019-01-23T03:46:46.268Z,85.87
2019-01-23T03:49:13.367Z,101.13
2019-01-23T03:51:40.481Z,97.37
2019-01-23T03:54:07.566Z,88.63
2019-01-23T03:56:34.685Z,101.60
2019-01-23T03:59:02.026Z,105.13
2019-01-23T04:01:29.336Z,106.50
2019-01-23T04:03:56.461Z,103.63
2019-01-23T04:06:23.576Z,98.10
2019-01-23T04:08:50.637Z,94.70
2019-01-23T04:11:17.818Z,99.17
2019-01-23T04:13:44.851Z,100.43
2019-01-23T04:16:11.919Z,94.53
2019-01-23T04:18:42.113Z,105.60
2019-01-23T04:21:09.148Z,109.03
2019-01-23T04:23:36.322Z,96.80
2019-01-23T04:26:03.563Z,98.30
2019-01-23T04:28:30.585Z,86.57
2019-01-23T04:30:57.597Z,97.73
2019-01-23T04:33:24.696Z,103.30
2019-01-23T04:35:51.817Z,99.70
2019-01-23T04:38:18.950Z,98.77
2019-01-23T04:40:46.127Z,100.23
2019-01-23T04:43:13.159Z,106.30
2019-01-23T04:45:40.204Z,111.73
2019-01-23T04:48:09.064Z,99.17
2019-01-23T04:50:55.788Z,101.60
2019-01-23T04:53:30.810Z,96.17
2019-01-23T04:55:57.844Z,102.80
2019-01-23T04:58:24.906Z,110.43
2019-01-23T05:00:52.010Z,105.83
2019-01-23T05:03:19.106Z,90.77
2019-01-23T05:05:46.139Z,102.80
2019-01-23T05:08:13.225Z,105.53
2019-01-23T05:10:40.267Z,94.70
2019-01-23T05:13:07.304Z,96.40
2019-01-23T05:15:34.383Z,101.70
2019-01-23T05:18:01.726Z,104.30
2019-01-23T05:20:28.764Z,87.30
2019-01-23T05:22:55.869Z,94.10
2019-01-23T05:25:23.023Z,101.10
2019-01-23T05:27:50.040Z,98.00
2019-01-23T05:30:19.638Z,93.10
2019-01-23T05:32:46.676Z,95.60
2019-01-23T05:35:32.536Z,81.77
2019-01-23T05:37:59.588Z,92.43
2019-01-23T05:40:26.625Z,82.83
2019-01-23T05:42:53.684Z,96.63
2019-01-23T05:45:20.902Z,94.87
2019-01-23T05:47:47.940Z,85.30
2019-01-23T05:50:15.995Z,89.20
2019-01-23T05:52:43.135Z,88.90
2019-01-23T05:55:11.802Z,96.00
2019-01-23T05:57:38.895Z,88.27
2019-01-23T06:00:08.969Z,93.07
2019-01-23T06:02:36.100Z,79.03
2019-01-23T06:05:04.838Z,82.80
2019-01-23T06:07:32.039Z,92.57
2019-01-23T06:09:59.083Z,97.93
2019-01-23T06:12:26.303Z,105.23
2019-01-23T06:14:53.367Z,97.33
2019-01-23T06:17:20.434Z,97.70
2019-01-23T06:19:47.511Z,88.00
2019-01-23T06:22:14.667Z,73.13
2019-01-23T06:24:41.783Z,87.63
2019-01-23T06:27:08.923Z,92.53
2019-01-23T06:29:35.972Z,93.67
2019-01-23T06:32:03.008Z,99.23
2019-01-23T06:34:39.498Z,93.03
2019-01-23T06:37:06.536Z,82.43
2019-01-23T06:39:33.561Z,83.77
2019-01-23T06:42:00.659Z,83.83
2019-01-23T06:44:27.710Z,88.60
2019-01-23T06:46:54.749Z,91.70
2019-01-23T06:49:21.925Z,104.87
2019-01-23T06:51:48.963Z,104.47
2019-01-23T06:54:15.998Z,95.30
2019-01-23T06:56:43.133Z,90.37
2019-01-23T06:59:10.198Z,101.23
2019-01-23T07:01:40.109Z,98.20
2019-01-23T07:04:07.298Z,89.07
2019-01-23T07:06:34.465Z,93.27
2019-01-23T07:09:01.509Z,94.97
2019-01-23T07:11:28.627Z,103.97
2019-01-23T07:13:55.668Z,95.83
2019-01-23T07:16:22.717Z,102.37
2019-01-23T07:18:50.081Z,92.77
2019-01-23T07:21:17.117Z,88.07
2019-01-23T07:23:44.162Z,78.80
2019-01-23T07:26:11.269Z,85.70
2019-01-23T07:28:38.465Z,79.90
2019-01-23T07:31:05.524Z,84.17
2019-01-23T07:33:32.580Z,87.27
2019-01-23T07:35:59.641Z,84.80
2019-01-23T07:38:26.770Z,84.50
2019-01-23T07:40:53.841Z,91.57
2019-01-23T07:43:20.953Z,88.43
2019-01-23T07:45:47.998Z,102.47
2019-01-23T07:48:15.019Z,93.43
2019-01-23T07:50:42.199Z,90.10
2019-01-23T07:53:09.294Z,99.63
2019-01-23T07:55:36.351Z,90.60
2019-01-23T07:58:03.638Z,98.13
2019-01-23T08:00:31.497Z,96.00
2019-01-23T08:02:59.758Z,101.50
2019-01-23T08:05:26.841Z,106.93
2019-01-23T08:07:54.053Z,104.13
2019-01-23T08:10:21.449Z,86.73
2019-01-23T08:12:48.545Z,95.40
2019-01-23T08:15:35.120Z,98.13
2019-01-23T08:18:02.186Z,108.17
2019-01-23T08:20:29.340Z,104.30
2019-01-23T08:22:56.767Z,110.40
2019-01-23T08:25:23.840Z,125.20
2019-01-23T08:27:50.876Z,133.20
2019-01-23T08:30:19.216Z,107.83
2019-01-23T08:32:46.421Z,113.17
2019-01-23T08:35:15.551Z,106.43
2019-01-23T08:37:42.698Z,95.07
2019-01-23T08:40:13.175Z,106.97
2019-01-23T08:42:40.238Z,105.70
2019-01-23T08:45:08.176Z,89.53
2019-01-23T08:47:35.261Z,93.30
2019-01-23T08:50:02.603Z,84.37
2019-01-23T08:52:29.637Z,79.37
2019-01-23T08:54:56.667Z,83.80
2019-01-23T08:57:24.068Z,77.97
2019-01-23T08:59:51.137Z,80.17
2019-01-23T09:02:18.234Z,82.87
2019-01-23T09:04:45.322Z,78.90
2019-01-23T09:07:12.374Z,80.67
2019-01-23T09:09:39.418Z,76.80
2019-01-23T09:12:08.772Z,77.30
2019-01-23T09:14:35.841Z,83.40
2019-01-23T09:17:02.948Z,74.77
2019-01-23T09:19:30.124Z,83.47
2019-01-23T09:21:57.260Z,82.37
2019-01-23T09:24:24.494Z,84.03
2019-01-23T09:26:51.643Z,81.80
2019-01-23T09:29:18.766Z,81.47
2019-01-23T09:32:26.894Z,75.30
2019-01-23T09:35:07.923Z,82.43
2019-01-23T09:37:55.391Z,82.60
2019-01-23T09:40:37.908Z,80.37
2019-01-23T09:43:33.812Z,81.57
2019-01-23T09:46:54.070Z,85.27
2019-01-23T09:50:02.374Z,80.47
2019-01-23T09:53:15.562Z,84.67
2019-01-23T09:55:42.638Z,88.27
2019-01-23T09:58:10.532Z,90.77
2019-01-23T10:00:37.609Z,85.30
2019-01-23T10:03:04.889Z,86.00
2019-01-23T10:05:38.218Z,77.83
2019-01-23T10:08:05.884Z,83.90
2019-01-23T10:10:33.101Z,82.20
2019-01-23T10:13:00.168Z,82.47
2019-01-23T10:15:45.366Z,82.90
2019-01-23T10:18:12.842Z,79.67
2019-01-23T10:20:39.871Z,82.53
2019-01-23T10:23:07.200Z,76.13
2019-01-23T10:25:34.310Z,90.03
2019-01-23T10:28:01.356Z,91.30
2019-01-23T10:30:28.413Z,91.47
2019-01-23T10:32:55.490Z,78.60
2019-01-23T10:35:22.530Z,85.50
2019-01-23T10:37:49.597Z,75.67
2019-01-23T10:40:16.745Z,82.50
2019-01-23T10:42:44.005Z,86.97
2019-01-23T10:45:11.600Z,80.37
2019-01-23T10:47:38.634Z,82.77
2019-01-23T10:50:06.658Z,79.43
2019-01-23T10:52:33.720Z,80.10
2019-01-23T10:55:00.875Z,81.40
2019-01-23T10:57:27.988Z,74.27
2019-01-23T10:59:55.133Z,77.87
2019-01-23T11:02:22.206Z,77.63
2019-01-23T11:04:49.652Z,74.93
2019-01-23T11:07:16.697Z,72.93
2019-01-23T11:09:43.727Z,77.27
2019-01-23T11:12:10.941Z,78.40
2019-01-23T11:14:37.960Z,84.67
2019-01-23T11:17:05.127Z,67.90
2019-01-23T11:19:32.313Z,74.07
2019-01-23T11:21:59.338Z,77.47
2019-01-23T11:24:26.662Z,80.37
2019-01-23T11:26:53.797Z,74.50
2019-01-23T11:29:20.834Z,79.10
2019-01-23T11:31:47.872Z,77.77
2019-01-23T11:34:14.990Z,78.30
2019-01-23T11:36:43.323Z,75.03
2019-01-23T11:39:10.411Z,70.10
2019-01-23T11:41:37.574Z,75.30
2019-01-23T11:44:04.633Z,78.33
2019-01-23T11:46:31.733Z,67.13
2019-01-23T11:48:58.813Z,68.77
2019-01-23T11:51:25.853Z,68.10
2019-01-23T11:53:52.909Z,66.47
2019-01-23T11:56:20.036Z,74.70
2019-01-23T11:58:47.102Z,65.40
2019-01-23T12:01:14.143Z,69.27
2019-01-23T12:03:41.278Z,69.63
2019-01-23T12:06:08.368Z,69.40
2019-01-23T12:08:35.516Z,78.30
2019-01-23T12:11:02.601Z,73.90
2019-01-23T12:13:29.644Z,76.43
2019-01-23T12:15:56.700Z,69.47
2019-01-23T12:18:23.760Z,73.37
2019-01-23T12:20:50.812Z,71.47
2019-01-23T12:23:18.083Z,72.90
2019-01-23T12:25:45.244Z,69.50
2019-01-23T12:28:12.304Z,68.07
2019-01-23T12:30:41.172Z,69.37
2019-01-23T12:33:08.361Z,68.70
2019-01-23T12:35:35.548Z,72.63
2019-01-23T12:38:02.648Z,60.53
2019-01-23T12:40:29.749Z,63.47
2019-01-23T12:42:56.788Z,77.93
2019-01-23T12:45:25.560Z,68.10
2019-01-23T12:47:52.815Z,69.77
2019-01-23T12:50:22.619Z,64.30
2019-01-23T12:52:51.080Z,72.77
2019-01-23T12:55:19.286Z,71.57
2019-01-23T12:57:46.326Z,70.77
2019-01-23T13:00:16.984Z,70.33
2019-01-23T13:02:44.153Z,67.27
2019-01-23T13:05:12.981Z,73.73
2019-01-23T13:07:40.072Z,75.60
2019-01-23T13:10:11.225Z,72.63
2019-01-23T13:12:38.273Z,68.63
2019-01-23T13:15:06.138Z,68.90
2019-01-23T13:17:33.234Z,74.93
2019-01-23T13:20:00.281Z,74.47
2019-01-23T13:22:27.319Z,71.80
2019-01-23T13:24:54.429Z,70.07
2019-01-23T13:27:21.482Z,72.57
2019-01-23T13:29:48.542Z,67.20
2019-01-23T13:32:15.624Z,76.40
2019-01-23T13:34:52.820Z,69.97
2019-01-23T13:37:19.907Z,77.30
2019-01-23T13:39:47.021Z,77.27
2019-01-23T13:42:14.190Z,73.40
2019-01-23T13:44:41.254Z,71.50
2019-01-23T13:47:08.328Z,70.47
2019-01-23T13:49:35.424Z,74.67
2019-01-23T13:52:02.779Z,71.87
2019-01-23T13:54:29.844Z,76.23
2019-01-23T13:56:56.997Z,70.97
2019-01-23T13:59:24.154Z,79.37
2019-01-23T14:01:56.119Z,78.60
2019-01-23T14:04:20.363Z,84.27
2019-01-23T14:06:47.452Z,77.07
2019-01-23T14:09:14.548Z,85.93
2019-01-23T14:11:41.582Z,81.47
2019-01-23T14:14:08.674Z,81.63
2019-01-23T14:16:35.848Z,87.03
2019-01-23T14:19:03.062Z,79.30
2019-01-23T14:21:30.178Z,83.33
2019-01-23T14:23:58.405Z,78.30
2019-01-23T14:26:25.479Z,78.20
2019-01-23T14:28:52.556Z,85.17
2019-01-23T14:31:19.753Z,84.20
2019-01-23T14:33:46.829Z,77.47
2019-01-23T14:36:13.904Z,85.50
2019-01-23T14:38:40.975Z,83.30
2019-01-23T14:41:08.066Z,86.67
2019-01-23T14:43:55.840Z,77.87
2019-01-23T14:46:22.859Z,79.50
2019-01-23T14:48:50.038Z,77.93
2019-01-23T14:51:17.267Z,86.07
2019-01-23T14:53:44.279Z,71.17
2019-01-23T14:56:11.686Z,77.37
2019-01-23T14:58:38.784Z,68.97
2019-01-23T15:01:05.825Z,65.43
2019-01-23T15:03:33.205Z,68.10
2019-01-23T15:06:00.310Z,61.83
2019-01-23T15:08:27.391Z,63.80
2019-01-23T15:10:54.524Z,59.13
2019-01-23T15:13:21.645Z,55.93
2019-01-23T15:15:48.708Z,60.60
2019-01-23T15:18:15.757Z,53.10
2019-01-23T15:20:43.097Z,51.80
2019-01-23T15:23:10.177Z,53.90
2019-01-23T15:25:37.359Z,51.60
2019-01-23T15:28:04.664Z,49.30
2019-01-23T15:30:31.738Z,45.57
2019-01-23T15:32:58.850Z,45.80
2019-01-23T15:35:25.959Z,41.87
2019-01-23T15:37:53.027Z,40.57
2019-01-23T15:40:25.328Z,41.50
2019-01-23T15:42:52.477Z,45.50
2019-01-23T15:45:19.510Z,45.17
2019-01-23T15:47:48.080Z,46.70
2019-01-23T15:52:50.751Z,47.17
2019-01-23T15:55:19.410Z,47.07
2019-01-23T15:57:46.635Z,50.73
2019-01-23T16:00:19.830Z,51.70
2019-01-23T16:02:48.491Z,50.73
2019-01-23T16:05:15.777Z,46.83
2019-01-23T16:07:43.052Z,46.77
2019-01-23T16:10:12.611Z,50.10
2019-01-23T16:12:39.675Z,49.43
2019-01-23T16:15:08.135Z,49.63
2019-01-23T16:17:35.533Z,52.37
2019-01-23T16:20:03.768Z,55.20
2019-01-23T16:22:30.912Z,54.50
2019-01-23T16:24:58.152Z,52.90
2019-01-23T16:27:25.356Z,52.67
2019-01-23T16:29:52.509Z,58.80
2019-01-23T16:32:19.669Z,57.80
2019-01-23T16:34:46.712Z,56.37
2019-01-23T16:37:13.997Z,57.70
2019-01-23T16:39:41.475Z,55.83
2019-01-23T16:42:08.829Z,61.07
2019-01-23T16:44:38.056Z,59.03
2019-01-23T16:47:05.255Z,58.20
2019-01-23T16:49:32.362Z,63.03
2019-01-23T16:51:59.443Z,70.53
2019-01-23T16:54:26.567Z,70.23
2019-01-23T16:56:53.781Z,68.53
2019-01-23T16:59:20.849Z,67.63
2019-01-23T17:01:48.102Z,74.47
2019-01-23T17:04:15.357Z,67.60
2019-01-23T17:06:42.427Z,71.60
2019-01-23T17:09:28.470Z,77.67
2019-01-23T17:11:57.300Z,68.20
2019-01-23T17:14:24.361Z,72.43
2019-01-23T17:16:51.588Z,72.63
2019-01-23T17:19:18.935Z,71.17
2019-01-23T17:21:46.062Z,73.97
2019-01-23T17:24:13.171Z,69.77
2019-01-23T17:26:40.401Z,72.63
2019-01-23T17:29:07.560Z,80.80
2019-01-23T17:31:34.616Z,70.57
2019-01-23T17:34:01.715Z,87.60
2019-01-23T17:36:28.869Z,75.70
2019-01-23T17:38:55.916Z,65.33
2019-01-23T17:41:23.034Z,70.50
2019-01-23T17:43:50.228Z,65.57
2019-01-23T17:46:17.319Z,70.47
2019-01-23T17:48:44.404Z,61.07
2019-01-23T17:51:11.706Z,61.87
2019-01-23T17:53:40.447Z,65.83
2019-01-23T17:56:07.640Z,56.07
2019-01-23T17:58:34.657Z,56.63
2019-01-23T18:01:02.613Z,58.57
2019-01-23T18:03:29.745Z,53.77
2019-01-23T18:05:56.828Z,62.33
2019-01-23T18:08:23.913Z,55.23
2019-01-23T18:10:50.974Z,57.17
2019-01-23T18:13:18.078Z,53.43
2019-01-23T18:15:45.239Z,54.60
2019-01-23T18:18:12.366Z,57.57
2019-01-23T18:20:39.521Z,57.57
2019-01-23T18:23:06.620Z,62.33
2019-01-23T18:25:33.760Z,60.27
2019-01-23T18:28:01.394Z,56.20
2019-01-23T18:30:35.286Z,59.37
2019-01-23T18:33:03.600Z,62.27
2019-01-23T18:35:59.836Z,65.07
2019-01-23T18:38:57.343Z,62.43
2019-01-23T18:42:02.980Z,56.60
2019-01-23T18:44:34.804Z,58.00
2019-01-23T18:47:22.528Z,58.77
2019-01-23T18:50:29.935Z,63.90
2019-01-23T18:52:57.088Z,70.17
2019-01-23T18:55:25.576Z,69.60
2019-01-23T18:57:52.643Z,67.97
2019-01-23T19:00:20.916Z,58.00
2019-01-23T19:02:47.993Z,65.00
2019-01-23T19:05:17.083Z,71.50
2019-01-23T19:07:44.193Z,61.60
2019-01-23T19:10:13.012Z,72.20
2019-01-23T19:12:40.123Z,72.70
2019-01-23T19:15:09.244Z,72.53
2019-01-23T19:17:36.411Z,72.37
2019-01-23T19:20:07.150Z,72.50
2019-01-23T19:22:34.369Z,73.53
2019-01-23T19:25:01.447Z,72.97
2019-01-23T19:27:28.658Z,69.00
2019-01-23T19:29:55.754Z,74.17
2019-01-23T19:32:22.835Z,74.27
2019-01-23T19:34:49.899Z,77.03
2019-01-23T19:37:17.108Z,77.97
2019-01-23T19:39:44.254Z,69.70
2019-01-23T19:42:11.500Z,76.30
2019-01-23T19:44:38.631Z,81.87
2019-01-23T19:47:06.186Z,78.60
2019-01-23T19:49:33.271Z,72.50
2019-01-23T19:52:00.480Z,74.00
2019-01-23T19:54:27.538Z,82.10
2019-01-23T19:56:54.744Z,79.17
2019-01-23T19:59:21.808Z,78.83
2019-01-23T20:01:48.917Z,81.00
2019-01-23T20:04:16.053Z,75.97
2019-01-23T20:06:43.141Z,82.63
2019-01-23T20:09:10.225Z,71.80
2019-01-23T20:11:37.343Z,78.23
2019-01-23T20:14:04.897Z,81.97
2019-01-23T20:16:32.073Z,79.00
2019-01-23T20:19:01.317Z,78.80
2019-01-23T20:21:28.545Z,75.07
2019-01-23T20:23:55.586Z,83.83
2019-01-23T20:26:24.795Z,74.57
2019-01-23T20:29:29.503Z,85.30
2019-01-23T20:31:57.739Z,78.70
2019-01-23T20:34:24.863Z,85.17
2019-01-23T20:36:51.988Z,74.13
2019-01-23T20:39:19.276Z,81.60
2019-01-23T20:41:46.313Z,82.27
2019-01-23T20:44:13.423Z,79.27
2019-01-23T20:46:40.578Z,81.60
2019-01-23T20:49:07.630Z,84.40
2019-01-23T20:52:12.687Z,85.80
2019-01-23T20:54:39.927Z,82.13
2019-01-23T20:57:07.103Z,82.77
2019-01-23T20:59:34.210Z,88.43
2019-01-23T21:02:01.281Z,83.90
2019-01-23T21:04:28.312Z,82.57
2019-01-23T21:06:55.402Z,80.80
2019-01-23T21:09:22.499Z,80.80
2019-01-23T21:11:49.670Z,81.93
2019-01-23T21:14:16.782Z,83.93
2019-01-23T21:16:43.957Z,94.90
2019-01-23T21:19:11.122Z,93.47
2019-01-23T21:21:38.267Z,87.70
2019-01-23T21:24:05.376Z,84.20
2019-01-23T21:26:32.440Z,91.43
2019-01-23T21:28:59.583Z,90.10
2019-01-23T21:31:26.701Z,89.27
2019-01-23T21:33:53.781Z,92.97
2019-01-23T21:36:21.298Z,95.47
2019-01-23T21:38:48.387Z,96.57
2019-01-23T21:41:15.439Z,97.00
2019-01-23T21:43:42.689Z,91.17
2019-01-23T21:46:09.798Z,95.87
2019-01-23T21:48:36.900Z,98.87
2019-01-23T21:51:04.543Z,103.30
2019-01-23T21:53:31.611Z,95.07
2019-01-23T21:55:58.768Z,91.60
2019-01-23T21:58:25.900Z,104.00
2019-01-23T22:00:55.932Z,97.73
2019-01-23T22:03:22.987Z,94.23
2019-01-23T22:05:50.136Z,97.83
2019-01-23T22:08:17.223Z,94.13
2019-01-23T22:10:44.304Z,86.87
2019-01-23T22:13:13.181Z,91.87
2019-01-23T22:15:40.296Z,96.33
2019-01-23T22:18:08.303Z,93.97
2019-01-23T22:20:35.337Z,94.43
2019-01-23T22:23:02.433Z,97.53
2019-01-23T22:25:29.545Z,96.80
2019-01-23T22:27:56.633Z,96.10
2019-01-23T22:30:27.968Z,99.60
2019-01-23T22:32:55.027Z,95.80
2019-01-23T22:35:22.171Z,88.77
2019-01-23T22:37:49.390Z,94.20
2019-01-23T22:40:17.696Z,96.33
2019-01-23T22:42:44.849Z,101.57
2019-01-23T22:45:14.135Z,87.87
2019-01-23T22:47:41.259Z,98.73
2019-01-23T22:50:11.423Z,99.10
2019-01-23T22:52:38.544Z,98.23
2019-01-23T22:55:07.509Z,95.50
2019-01-23T22:57:34.794Z,92.53
2019-01-23T23:00:02.182Z,96.67
2019-01-23T23:02:29.314Z,94.10
2019-01-23T23:04:56.433Z,96.83
2019-01-23T23:07:23.513Z,93.80
2019-01-23T23:09:50.558Z,102.80
2019-01-23T23:12:17.697Z,99.67
2019-01-23T23:14:44.883Z,89.23
2019-01-23T23:17:11.917Z,93.00
2019-01-23T23:19:38.988Z,98.80
2019-01-23T23:22:06.556Z,91.93
2019-01-23T23:24:33.940Z,93.20
2019-01-23T23:27:00.937Z,94.07
2019-01-23T23:29:28.024Z,96.50
2019-01-23T23:31:55.080Z,94.00
2019-01-23T23:34:22.116Z,97.97
2019-01-23T23:36:49.215Z,96.30
2019-01-23T23:39:16.263Z,100.37
2019-01-23T23:41:43.322Z,100.60
2019-01-23T23:44:10.928Z,92.37
2019-01-23T23:46:38.172Z,97.13
2019-01-23T23:49:05.241Z,96.07
2019-01-23T23:51:32.380Z,95.70
2019-01-23T23:53:59.515Z,94.47
2019-01-23T23:56:26.601Z,98.57
2019-01-23T23:58:53.786Z,97.40
